sensor_id;sensor_type;location;lat;lon;timestamp;pressure;altitude;pressure_sealevel;temperature;humidity
61710;BME280;47633;51.494;5.386;2023-08-24T00:01:02;101756.25;;;24.39;53.83
61710;BME280;47633;51.494;5.386;2023-08-24T00:03:28;101757.09;;;24.40;53.59
61710;BME280;47633;51.494;5.386;2023-08-24T00:05:53;101738.59;;;24.38;53.48
61710;BME280;47633;51.494;5.386;2023-08-24T00:08:19;101745.59;;;24.39;53.61
61710;BME280;47633;51.494;5.386;2023-08-24T00:10:44;101751.09;;;24.38;53.40
61710;BME280;47633;51.494;5.386;2023-08-24T00:13:13;101747.59;;;24.37;53.37
61710;BME280;47633;51.494;5.386;2023-08-24T00:15:39;101760.91;;;24.37;53.79
61710;BME280;47633;51.494;5.386;2023-08-24T00:18:05;101754.84;;;24.35;53.89
61710;BME280;47633;51.494;5.386;2023-08-24T00:20:31;101749.53;;;24.35;53.61
61710;BME280;47633;51.494;5.386;2023-08-24T00:22:58;101730.75;;;24.37;53.33
61710;BME280;47633;51.494;5.386;2023-08-24T00:25:23;101728.94;;;24.37;53.71
61710;BME280;47633;51.494;5.386;2023-08-24T00:27:49;101727.38;;;24.35;53.46
61710;BME280;47633;51.494;5.386;2023-08-24T00:30:15;101731.75;;;24.36;53.80
61710;BME280;47633;51.494;5.386;2023-08-24T00:32:40;101732.56;;;24.36;53.56
61710;BME280;47633;51.494;5.386;2023-08-24T00:35:06;101731.03;;;24.34;53.51
61710;BME280;47633;51.494;5.386;2023-08-24T00:37:33;101726.56;;;24.34;53.60
61710;BME280;47633;51.494;5.386;2023-08-24T00:40:03;101722.22;;;24.33;53.22
61710;BME280;47633;51.494;5.386;2023-08-24T00:42:42;101711.69;;;24.32;53.83
61710;BME280;47633;51.494;5.386;2023-08-24T00:45:10;101709.72;;;24.34;53.70
61710;BME280;47633;51.494;5.386;2023-08-24T00:47:43;101709.72;;;24.34;53.42
61710;BME280;47633;51.494;5.386;2023-08-24T00:50:10;101707.06;;;24.34;53.70
61710;BME280;47633;51.494;5.386;2023-08-24T00:52:37;101708.88;;;24.33;53.51
61710;BME280;47633;51.494;5.386;2023-08-24T00:55:05;101716.06;;;24.33;53.66
61710;BME280;47633;51.494;5.386;2023-08-24T00:57:31;101721.38;;;24.33;53.33
61710;BME280;47633;51.494;5.386;2023-08-24T00:59:59;101714.38;;;24.32;53.73
61710;BME280;47633;51.494;5.386;2023-08-24T01:02:24;101712.53;;;24.32;53.49
61710;BME280;47633;51.494;5.386;2023-08-24T01:04:50;101698.38;;;24.32;53.75
61710;BME280;47633;51.494;5.386;2023-08-24T01:07:16;101703.84;;;24.30;53.75
61710;BME280;47633;51.494;5.386;2023-08-24T01:09:42;101712.53;;;24.32;53.35
61710;BME280;47633;51.494;5.386;2023-08-24T01:14:58;101719.00;;;24.30;53.74
61710;BME280;47633;51.494;5.386;2023-08-24T01:17:28;101719.69;;;24.32;53.36
61710;BME280;47633;51.494;5.386;2023-08-24T01:19:55;101710.88;;;24.31;53.69
61710;BME280;47633;51.494;5.386;2023-08-24T01:25:20;101696.84;;;24.29;53.55
61710;BME280;47633;51.494;5.386;2023-08-24T01:27:49;101704.69;;;24.31;53.37
61710;BME280;47633;51.494;5.386;2023-08-24T01:30:17;101697.00;;;24.27;53.87
61710;BME280;47633;51.494;5.386;2023-08-24T01:32:43;101702.16;;;24.29;53.72
61710;BME280;47633;51.494;5.386;2023-08-24T01:35:09;101705.81;;;24.28;53.42
61710;BME280;47633;51.494;5.386;2023-08-24T01:37:35;101706.66;;;24.29;53.24
61710;BME280;47633;51.494;5.386;2023-08-24T01:40:13;101697.16;;;24.26;53.40
61710;BME280;47633;51.494;5.386;2023-08-24T01:43:02;101700.50;;;24.28;53.87
61710;BME280;47633;51.494;5.386;2023-08-24T01:45:30;101701.34;;;24.29;53.78
61710;BME280;47633;51.494;5.386;2023-08-24T01:47:57;101702.16;;;24.29;53.42
61710;BME280;47633;51.494;5.386;2023-08-24T01:50:24;101700.66;;;24.26;53.36
61710;BME280;47633;51.494;5.386;2023-08-24T01:52:50;101692.66;;;24.26;53.61
61710;BME280;47633;51.494;5.386;2023-08-24T01:55:19;101701.63;;;24.25;53.49
61710;BME280;47633;51.494;5.386;2023-08-24T01:57:44;101710.31;;;24.27;53.68
61710;BME280;47633;51.494;5.386;2023-08-24T02:00:10;101706.94;;;24.25;53.56
61710;BME280;47633;51.494;5.386;2023-08-24T02:02:36;101705.97;;;24.26;53.34
61710;BME280;47633;51.494;5.386;2023-08-24T02:05:02;101698.13;;;24.25;53.84
61710;BME280;47633;51.494;5.386;2023-08-24T02:07:28;101699.97;;;24.24;53.60
61710;BME280;47633;51.494;5.386;2023-08-24T02:09:53;101698.94;;;24.25;53.44
61710;BME280;47633;51.494;5.386;2023-08-24T02:12:18;101683.84;;;24.26;53.33
61710;BME280;47633;51.494;5.386;2023-08-24T02:14:43;101677.66;;;24.25;53.76
61710;BME280;47633;51.494;5.386;2023-08-24T02:17:09;101687.31;;;24.26;53.55
61710;BME280;47633;51.494;5.386;2023-08-24T02:19:34;101679.47;;;24.25;53.77
61710;BME280;47633;51.494;5.386;2023-08-24T02:21:59;101699.81;;;24.26;53.27
61710;BME280;47633;51.494;5.386;2023-08-24T02:24:25;101689.31;;;24.24;53.83
61710;BME280;47633;51.494;5.386;2023-08-24T02:26:50;101686.63;;;24.24;53.38
61710;BME280;47633;51.494;5.386;2023-08-24T02:29:15;101681.31;;;24.24;53.57
61710;BME280;47633;51.494;5.386;2023-08-24T02:31:41;101678.78;;;24.23;53.26
61710;BME280;47633;51.494;5.386;2023-08-24T02:34:06;101694.78;;;24.23;53.88
61710;BME280;47633;51.494;5.386;2023-08-24T02:36:31;101690.28;;;24.23;53.38
61710;BME280;47633;51.494;5.386;2023-08-24T02:38:58;101686.78;;;24.23;53.52
61710;BME280;47633;51.494;5.386;2023-08-24T02:41:24;101679.78;;;24.22;53.70
61710;BME280;47633;51.494;5.386;2023-08-24T02:43:49;101671.63;;;24.23;53.56
61710;BME280;47633;51.494;5.386;2023-08-24T02:46:14;101660.97;;;24.23;53.39
61710;BME280;47633;51.494;5.386;2023-08-24T02:48:39;101660.97;;;24.23;53.50
61710;BME280;47633;51.494;5.386;2023-08-24T02:51:05;101647.81;;;24.22;53.46
61710;BME280;47633;51.494;5.386;2023-08-24T02:53:31;101631.00;;;24.21;53.54
61710;BME280;47633;51.494;5.386;2023-08-24T02:55:57;101626.50;;;24.22;53.63
61710;BME280;47633;51.494;5.386;2023-08-24T02:58:23;101621.31;;;24.20;53.64
61710;BME280;47633;51.494;5.386;2023-08-24T03:00:48;101608.84;;;24.21;53.70
61710;BME280;47633;51.494;5.386;2023-08-24T03:03:14;101601.72;;;24.21;53.85
61710;BME280;47633;51.494;5.386;2023-08-24T03:05:40;101578.72;;;24.20;53.67
61710;BME280;47633;51.494;5.386;2023-08-24T03:08:05;101559.94;;;24.22;54.01
61710;BME280;47633;51.494;5.386;2023-08-24T03:10:31;101550.97;;;24.23;54.10
61710;BME280;47633;51.494;5.386;2023-08-24T03:12:59;101545.78;;;24.21;53.72
61710;BME280;47633;51.494;5.386;2023-08-24T03:15:24;101545.78;;;24.21;54.02
61710;BME280;47633;51.494;5.386;2023-08-24T03:17:50;101564.44;;;24.21;53.97
61710;BME280;47633;51.494;5.386;2023-08-24T03:20:15;101562.75;;;24.20;53.92
61710;BME280;47633;51.494;5.386;2023-08-24T03:22:41;101552.91;;;24.21;54.09
61710;BME280;47633;51.494;5.386;2023-08-24T03:25:07;101538.09;;;24.18;54.21
61710;BME280;47633;51.494;5.386;2023-08-24T03:27:32;101519.44;;;24.18;54.06
61710;BME280;47633;51.494;5.386;2023-08-24T03:29:57;101520.13;;;24.20;54.02
61710;BME280;47633;51.494;5.386;2023-08-24T03:32:23;101516.63;;;24.20;54.15
61710;BME280;47633;51.494;5.386;2023-08-24T03:34:49;101505.13;;;24.19;54.09
61710;BME280;47633;51.494;5.386;2023-08-24T03:37:14;101496.16;;;24.20;54.05
61710;BME280;47633;51.494;5.386;2023-08-24T03:39:40;101490.00;;;24.20;54.18
61710;BME280;47633;51.494;5.386;2023-08-24T03:42:06;101482.03;;;24.20;53.84
61710;BME280;47633;51.494;5.386;2023-08-24T03:44:31;101471.50;;;24.18;54.21
61710;BME280;47633;51.494;5.386;2023-08-24T03:46:57;101473.16;;;24.19;54.17
61710;BME280;47633;51.494;5.386;2023-08-24T03:49:22;101472.34;;;24.19;54.05
61710;BME280;47633;51.494;5.386;2023-08-24T03:51:48;101467.84;;;24.19;54.24
61710;BME280;47633;51.494;5.386;2023-08-24T03:54:13;101474.03;;;24.20;54.19
61710;BME280;47633;51.494;5.386;2023-08-24T03:56:39;101486.47;;;24.19;54.24
61710;BME280;47633;51.494;5.386;2023-08-24T03:59:04;101489.16;;;24.19;54.44
61710;BME280;47633;51.494;5.386;2023-08-24T04:01:30;101488.16;;;24.20;54.32
61710;BME280;47633;51.494;5.386;2023-08-24T04:03:55;101489.28;;;24.18;53.98
61710;BME280;47633;51.494;5.386;2023-08-24T04:06:20;101493.66;;;24.19;54.07
61710;BME280;47633;51.494;5.386;2023-08-24T04:08:46;101486.63;;;24.18;54.08
61710;BME280;47633;51.494;5.386;2023-08-24T04:11:11;101499.94;;;24.18;54.03
61710;BME280;47633;51.494;5.386;2023-08-24T04:13:36;101506.13;;;24.18;54.04
61710;BME280;47633;51.494;5.386;2023-08-24T04:16:02;101506.97;;;24.19;54.09
61710;BME280;47633;51.494;5.386;2023-08-24T04:18:29;101514.94;;;24.19;54.11
61710;BME280;47633;51.494;5.386;2023-08-24T04:20:54;101506.97;;;24.19;54.06
61710;BME280;47633;51.494;5.386;2023-08-24T04:23:24;101512.44;;;24.17;54.60
61710;BME280;47633;51.494;5.386;2023-08-24T04:25:50;101514.94;;;24.19;54.58
61710;BME280;47633;51.494;5.386;2023-08-24T04:28:15;101523.75;;;24.19;54.30
61710;BME280;47633;51.494;5.386;2023-08-24T04:30:49;101520.41;;;24.17;54.05
61710;BME280;47633;51.494;5.386;2023-08-24T04:33:14;101530.09;;;24.18;54.16
61710;BME280;47633;51.494;5.386;2023-08-24T04:35:40;101521.09;;;24.19;54.09
61710;BME280;47633;51.494;5.386;2023-08-24T04:38:05;101515.94;;;24.18;54.03
61710;BME280;47633;51.494;5.386;2023-08-24T04:40:55;101520.41;;;24.17;54.56
61710;BME280;47633;51.494;5.386;2023-08-24T04:43:22;101520.41;;;24.17;54.15
61710;BME280;47633;51.494;5.386;2023-08-24T04:45:53;101523.09;;;24.17;54.31
61710;BME280;47633;51.494;5.386;2023-08-24T04:48:23;101521.41;;;24.16;54.39
61710;BME280;47633;51.494;5.386;2023-08-24T04:50:49;101518.75;;;24.16;54.37
61710;BME280;47633;51.494;5.386;2023-08-24T04:53:16;101527.59;;;24.17;54.64
61710;BME280;47633;51.494;5.386;2023-08-24T04:55:42;101515.25;;;24.16;54.18
61710;BME280;47633;51.494;5.386;2023-08-24T04:58:09;101512.59;;;24.16;54.34
61710;BME280;47633;51.494;5.386;2023-08-24T05:00:35;101509.09;;;24.15;54.33
61710;BME280;47633;51.494;5.386;2023-08-24T05:03:01;101508.22;;;24.15;54.12
61710;BME280;47633;51.494;5.386;2023-08-24T05:05:29;101517.06;;;24.15;54.67
61710;BME280;47633;51.494;5.386;2023-08-24T05:07:55;101520.72;;;24.14;54.34
61710;BME280;47633;51.494;5.386;2023-08-24T05:10:20;101531.38;;;24.14;54.53
61710;BME280;47633;51.494;5.386;2023-08-24T05:12:45;101531.38;;;24.14;54.27
61710;BME280;47633;51.494;5.386;2023-08-24T05:15:11;101530.41;;;24.15;54.20
61710;BME280;47633;51.494;5.386;2023-08-24T05:17:36;101528.72;;;24.14;54.43
61710;BME280;47633;51.494;5.386;2023-08-24T05:20:02;101521.53;;;24.15;54.72
61710;BME280;47633;51.494;5.386;2023-08-24T05:22:28;101519.88;;;24.14;54.26
61710;BME280;47633;51.494;5.386;2023-08-24T05:24:54;101512.72;;;24.14;54.47
61710;BME280;47633;51.494;5.386;2023-08-24T05:27:19;101503.06;;;24.13;54.79
61710;BME280;47633;51.494;5.386;2023-08-24T05:29:45;101493.41;;;24.12;54.73
61710;BME280;47633;51.494;5.386;2023-08-24T05:32:10;101494.25;;;24.13;54.23
61710;BME280;47633;51.494;5.386;2023-08-24T05:34:35;101487.41;;;24.10;54.51
61710;BME280;47633;51.494;5.386;2023-08-24T05:37:00;101492.41;;;24.13;54.33
61710;BME280;47633;51.494;5.386;2023-08-24T05:39:26;101498.75;;;24.12;54.67
61710;BME280;47633;51.494;5.386;2023-08-24T05:41:52;101491.72;;;24.11;54.74
61710;BME280;47633;51.494;5.386;2023-08-24T05:44:18;101497.91;;;24.12;54.42
61710;BME280;47633;51.494;5.386;2023-08-24T05:46:44;101489.91;;;24.12;54.69
61710;BME280;47633;51.494;5.386;2023-08-24T05:49:09;101486.41;;;24.11;54.64
61710;BME280;47633;51.494;5.386;2023-08-24T05:51:34;101488.91;;;24.13;54.93
61710;BME280;47633;51.494;5.386;2023-08-24T05:54:00;101489.22;;;24.09;54.49
61710;BME280;47633;51.494;5.386;2023-08-24T05:56:26;101484.59;;;24.12;54.71
61710;BME280;47633;51.494;5.386;2023-08-24T05:58:51;101466.78;;;24.12;54.29
61710;BME280;47633;51.494;5.386;2023-08-24T06:01:16;101457.97;;;24.12;54.69
61710;BME280;47633;51.494;5.386;2023-08-24T06:03:42;101449.13;;;24.11;54.88
61710;BME280;47633;51.494;5.386;2023-08-24T06:06:07;101448.97;;;24.13;54.86
61710;BME280;47633;51.494;5.386;2023-08-24T06:08:34;101448.28;;;24.11;54.98
61710;BME280;47633;51.494;5.386;2023-08-24T06:11:00;101433.16;;;24.11;54.50
61710;BME280;47633;51.494;5.386;2023-08-24T06:13:25;101417.16;;;24.11;54.78
61710;BME280;47633;51.494;5.386;2023-08-24T06:15:51;101417.16;;;24.11;54.81
61710;BME280;47633;51.494;5.386;2023-08-24T06:18:17;101415.50;;;24.10;54.89
61710;BME280;47633;51.494;5.386;2023-08-24T06:20:42;101421.81;;;24.09;54.77
61710;BME280;47633;51.494;5.386;2023-08-24T06:23:08;101431.50;;;24.10;54.63
61710;BME280;47633;51.494;5.386;2023-08-24T06:25:33;101434.16;;;24.10;54.39
61710;BME280;47633;51.494;5.386;2023-08-24T06:27:59;101435.97;;;24.09;54.52
61710;BME280;47633;51.494;5.386;2023-08-24T06:30:27;101440.44;;;24.09;54.88
61710;BME280;47633;51.494;5.386;2023-08-24T06:32:52;101442.00;;;24.12;54.51
61710;BME280;47633;51.494;5.386;2023-08-24T06:35:17;101434.16;;;24.10;54.69
61710;BME280;47633;51.494;5.386;2023-08-24T06:37:43;101436.81;;;24.10;54.77
61710;BME280;47633;51.494;5.386;2023-08-24T06:40:09;101435.81;;;24.11;54.58
61710;BME280;47633;51.494;5.386;2023-08-24T06:42:34;101433.16;;;24.11;54.60
61710;BME280;47633;51.494;5.386;2023-08-24T06:45:00;101433.16;;;24.11;54.63
61710;BME280;47633;51.494;5.386;2023-08-24T06:47:25;101432.31;;;24.11;54.79
61710;BME280;47633;51.494;5.386;2023-08-24T06:49:50;101433.16;;;24.11;54.44
61710;BME280;47633;51.494;5.386;2023-08-24T06:52:16;101438.47;;;24.11;54.76
61710;BME280;47633;51.494;5.386;2023-08-24T06:54:41;101439.47;;;24.10;54.72
61710;BME280;47633;51.494;5.386;2023-08-24T06:57:06;101430.47;;;24.11;55.07
61710;BME280;47633;51.494;5.386;2023-08-24T06:59:32;101430.63;;;24.09;55.07
61710;BME280;47633;51.494;5.386;2023-08-24T07:01:57;101434.97;;;24.11;55.02
61710;BME280;47633;51.494;5.386;2023-08-24T07:04:23;101439.31;;;24.12;55.12
61710;BME280;47633;51.494;5.386;2023-08-24T07:06:48;101431.34;;;24.12;55.21
61710;BME280;47633;51.494;5.386;2023-08-24T07:09:14;101430.34;;;24.13;54.98
61710;BME280;47633;51.494;5.386;2023-08-24T07:11:40;101416.03;;;24.14;54.92
61710;BME280;47633;51.494;5.386;2023-08-24T07:14:06;101412.53;;;24.13;54.83
61710;BME280;47633;51.494;5.386;2023-08-24T07:16:31;101416.13;;;24.22;55.23
61710;BME280;47633;51.494;5.386;2023-08-24T07:18:57;101405.00;;;24.26;55.03
61710;BME280;47633;51.494;5.386;2023-08-24T07:21:22;101409.03;;;24.31;55.10
61710;BME280;47633;51.494;5.386;2023-08-24T07:23:47;101407.75;;;24.35;55.17
61710;BME280;47633;51.494;5.386;2023-08-24T07:26:13;101406.78;;;24.36;54.74
61710;BME280;47633;51.494;5.386;2023-08-24T07:28:38;101411.09;;;24.37;54.82
61710;BME280;47633;51.494;5.386;2023-08-24T07:31:10;101406.91;;;24.34;54.88
61710;BME280;47633;51.494;5.386;2023-08-24T07:33:40;101401.28;;;24.37;55.22
61710;BME280;47633;51.494;5.386;2023-08-24T07:36:06;101395.81;;;24.39;55.13
61710;BME280;47633;51.494;5.386;2023-08-24T07:38:32;101403.66;;;24.40;55.22
61710;BME280;47633;51.494;5.386;2023-08-24T07:40:58;101406.16;;;24.42;54.99
61710;BME280;47633;51.494;5.386;2023-08-24T07:43:23;101396.19;;;24.44;55.23
61710;BME280;47633;51.494;5.386;2023-08-24T07:45:49;101396.19;;;24.44;55.07
61710;BME280;47633;51.494;5.386;2023-08-24T07:48:14;101397.69;;;24.47;55.44
61710;BME280;47633;51.494;5.386;2023-08-24T07:50:40;101401.22;;;24.47;55.12
61710;BME280;47633;51.494;5.386;2023-08-24T07:53:06;101394.88;;;24.48;55.28
61710;BME280;47633;51.494;5.386;2023-08-24T07:55:31;101399.22;;;24.49;55.19
61710;BME280;47633;51.494;5.386;2023-08-24T07:57:57;101400.03;;;24.50;55.49
61710;BME280;47633;51.494;5.386;2023-08-24T08:00:22;101407.88;;;24.51;55.65
61710;BME280;47633;51.494;5.386;2023-08-24T08:02:50;101408.75;;;24.52;55.77
61710;BME280;47633;51.494;5.386;2023-08-24T08:05:16;101405.78;;;24.55;55.88
61710;BME280;47633;51.494;5.386;2023-08-24T08:07:41;101396.91;;;24.54;55.50
61710;BME280;47633;51.494;5.386;2023-08-24T08:10:07;101397.50;;;24.58;55.50
61710;BME280;47633;51.494;5.386;2023-08-24T08:12:33;101395.00;;;24.56;55.52
61710;BME280;47633;51.494;5.386;2023-08-24T08:14:59;101395.66;;;24.58;55.73
61710;BME280;47633;51.494;5.386;2023-08-24T08:17:24;101395.34;;;24.61;55.86
61710;BME280;47633;51.494;5.386;2023-08-24T08:19:54;101384.84;;;24.60;55.78
61710;BME280;47633;51.494;5.386;2023-08-24T08:22:20;101381.88;;;24.63;55.84
61710;BME280;47633;51.494;5.386;2023-08-24T08:24:45;101375.53;;;24.64;55.88
61710;BME280;47633;51.494;5.386;2023-08-24T08:27:11;101369.91;;;24.67;55.46
61710;BME280;47633;51.494;5.386;2023-08-24T08:29:36;101374.94;;;24.70;55.28
61710;BME280;47633;51.494;5.386;2023-08-24T08:32:01;101375.78;;;24.71;55.60
61710;BME280;47633;51.494;5.386;2023-08-24T08:34:27;101380.25;;;24.70;55.50
61710;BME280;47633;51.494;5.386;2023-08-24T08:36:52;101371.28;;;24.71;55.77
61710;BME280;47633;51.494;5.386;2023-08-24T08:39:17;101364.25;;;24.70;55.53
61710;BME280;47633;51.494;5.386;2023-08-24T08:41:43;101362.31;;;24.72;55.70
61710;BME280;47633;51.494;5.386;2023-08-24T08:44:13;101353.28;;;24.73;55.36
61710;BME280;47633;51.494;5.386;2023-08-24T08:46:39;101350.63;;;24.73;55.19
61710;BME280;47633;51.494;5.386;2023-08-24T08:49:06;101333.66;;;24.74;55.78
61710;BME280;47633;51.494;5.386;2023-08-24T08:51:33;101328.31;;;24.74;55.36
61710;BME280;47633;51.494;5.386;2023-08-24T08:53:58;101322.00;;;24.75;55.71
61710;BME280;47633;51.494;5.386;2023-08-24T08:56:23;101320.03;;;24.77;55.41
61710;BME280;47633;51.494;5.386;2023-08-24T08:58:49;101310.34;;;24.76;55.43
61710;BME280;47633;51.494;5.386;2023-08-24T09:01:16;101298.53;;;24.79;55.39
61710;BME280;47633;51.494;5.386;2023-08-24T09:03:42;101296.69;;;24.79;55.66
61710;BME280;47633;51.494;5.386;2023-08-24T09:06:09;101289.72;;;24.78;55.36
61710;BME280;47633;51.494;5.386;2023-08-24T09:08:34;101277.38;;;24.77;55.47
61710;BME280;47633;51.494;5.386;2023-08-24T09:11:00;101270.88;;;24.80;55.51
61710;BME280;47633;51.494;5.386;2023-08-24T09:13:26;101269.22;;;24.79;55.09
61710;BME280;47633;51.494;5.386;2023-08-24T09:15:52;101260.56;;;24.77;55.63
61710;BME280;47633;51.494;5.386;2023-08-24T09:18:20;101254.72;;;24.81;55.46
61710;BME280;47633;51.494;5.386;2023-08-24T09:20:48;101247.59;;;24.82;55.31
61710;BME280;47633;51.494;5.386;2023-08-24T09:23:17;101244.91;;;24.82;55.70
61710;BME280;47633;51.494;5.386;2023-08-24T09:25:46;101247.44;;;24.84;55.55
61710;BME280;47633;51.494;5.386;2023-08-24T09:28:22;101237.91;;;24.81;55.51
61710;BME280;47633;51.494;5.386;2023-08-24T09:30:52;101251.75;;;24.85;55.00
61710;BME280;47633;51.494;5.386;2023-08-24T09:33:18;101245.44;;;24.86;55.29
61710;BME280;47633;51.494;5.386;2023-08-24T09:35:43;101253.59;;;24.84;55.13
61710;BME280;47633;51.494;5.386;2023-08-24T09:38:19;101266.91;;;24.84;55.55
61710;BME280;47633;51.494;5.386;2023-08-24T09:40:54;101280.72;;;24.79;55.42
61710;BME280;47633;51.494;5.386;2023-08-24T09:43:21;101299.53;;;24.78;55.67
61710;BME280;47633;51.494;5.386;2023-08-24T09:45:54;101294.00;;;24.71;56.19
61710;BME280;47633;51.494;5.386;2023-08-24T09:48:20;101301.16;;;24.71;55.85
61710;BME280;47633;51.494;5.386;2023-08-24T09:50:47;101300.31;;;24.70;55.81
61710;BME280;47633;51.494;5.386;2023-08-24T09:53:19;101300.63;;;24.67;56.37
61710;BME280;47633;51.494;5.386;2023-08-24T09:58:15;101315.31;;;24.71;56.43
61710;BME280;47633;51.494;5.386;2023-08-24T10:00:41;101319.81;;;24.71;56.45
61710;BME280;47633;51.494;5.386;2023-08-24T10:03:07;101320.78;;;24.70;56.56
61710;BME280;47633;51.494;5.386;2023-08-24T10:05:33;101320.97;;;24.68;56.32
61710;BME280;47633;51.494;5.386;2023-08-24T10:07:59;101321.94;;;24.67;56.47
61710;BME280;47633;51.494;5.386;2023-08-24T10:10:27;101328.13;;;24.68;56.59
61710;BME280;47633;51.494;5.386;2023-08-24T10:13:07;101335.25;;;24.67;56.74
61710;BME280;47633;51.494;5.386;2023-08-24T10:15:35;101333.31;;;24.69;56.58
61710;BME280;47633;51.494;5.386;2023-08-24T10:18:02;101330.47;;;24.71;56.70
61710;BME280;47633;51.494;5.386;2023-08-24T10:20:28;101323.47;;;24.70;56.66
61710;BME280;47633;51.494;5.386;2023-08-24T10:22:55;101321.63;;;24.70;56.81
61710;BME280;47633;51.494;5.386;2023-08-24T10:25:22;101318.97;;;24.70;56.54
61710;BME280;47633;51.494;5.386;2023-08-24T10:27:49;101323.31;;;24.71;56.71
61710;BME280;47633;51.494;5.386;2023-08-24T10:30:16;101323.63;;;24.68;57.03
61710;BME280;47633;51.494;5.386;2023-08-24T10:32:42;101334.13;;;24.70;56.56
61710;BME280;47633;51.494;5.386;2023-08-24T10:35:08;101345.59;;;24.70;56.71
61710;BME280;47633;51.494;5.386;2023-08-24T10:37:34;101332.59;;;24.67;57.26
61710;BME280;47633;51.494;5.386;2023-08-24T10:39:59;101340.75;;;24.66;57.44
61710;BME280;47633;51.494;5.386;2023-08-24T10:42:25;101343.75;;;24.62;57.14
61710;BME280;47633;51.494;5.386;2023-08-24T10:44:52;101365.38;;;24.59;57.28
61710;BME280;47633;51.494;5.386;2023-08-24T10:47:21;101361.84;;;24.59;57.38
61710;BME280;47633;51.494;5.386;2023-08-24T10:52:25;101355.16;;;24.55;58.07
61710;BME280;47633;51.494;5.386;2023-08-24T10:54:53;101352.47;;;24.55;57.83
61710;BME280;47633;51.494;5.386;2023-08-24T10:57:21;101336.81;;;24.52;57.90
61710;BME280;47633;51.494;5.386;2023-08-24T11:00:03;101332.31;;;24.52;57.75
61710;BME280;47633;51.494;5.386;2023-08-24T11:02:40;101327.81;;;24.53;57.91
61710;BME280;47633;51.494;5.386;2023-08-24T11:05:15;101334.00;;;24.53;57.71
61710;BME280;47633;51.494;5.386;2023-08-24T11:07:57;101333.72;;;24.56;58.02
61710;BME280;47633;51.494;5.386;2023-08-24T11:10:24;101322.75;;;24.59;57.74
61710;BME280;47633;51.494;5.386;2023-08-24T11:13:16;101314.44;;;24.62;57.35
61710;BME280;47633;51.494;5.386;2023-08-24T11:15:46;101312.28;;;24.66;57.65
61710;BME280;47633;51.494;5.386;2023-08-24T11:23:16;101273.00;;;24.68;57.64
61710;BME280;47633;51.494;5.386;2023-08-24T11:25:42;101275.34;;;24.71;57.63
61710;BME280;47633;51.494;5.386;2023-08-24T11:28:07;101274.34;;;24.72;57.58
61710;BME280;47633;51.494;5.386;2023-08-24T11:30:33;101277.34;;;24.69;57.58
61710;BME280;47633;51.494;5.386;2023-08-24T11:33:00;101277.81;;;24.65;57.42
61710;BME280;47633;51.494;5.386;2023-08-24T11:35:25;101276.78;;;24.66;57.63
61710;BME280;47633;51.494;5.386;2023-08-24T11:37:56;101274.47;;;24.62;57.82
61710;BME280;47633;51.494;5.386;2023-08-24T11:40:22;101265.63;;;24.62;58.33
61710;BME280;47633;51.494;5.386;2023-08-24T11:42:55;101258.69;;;24.69;57.95
61710;BME280;47633;51.494;5.386;2023-08-24T11:45:22;101242.22;;;24.74;57.85
61710;BME280;47633;51.494;5.386;2023-08-24T11:47:49;101221.56;;;24.76;58.02
61710;BME280;47633;51.494;5.386;2023-08-24T11:50:14;101203.72;;;24.76;58.10
61710;BME280;47633;51.494;5.386;2023-08-24T11:52:41;101184.09;;;24.77;58.22
61710;BME280;47633;51.494;5.386;2023-08-24T11:55:06;101179.59;;;24.78;57.82
61710;BME280;47633;51.494;5.386;2023-08-24T11:57:34;101168.94;;;24.78;57.70
61710;BME280;47633;51.494;5.386;2023-08-24T11:59:59;101153.78;;;24.78;57.93
61710;BME280;47633;51.494;5.386;2023-08-24T12:02:25;101140.28;;;24.80;57.42
61710;BME280;47633;51.494;5.386;2023-08-24T12:04:50;101136.63;;;24.81;57.21
61710;BME280;47633;51.494;5.386;2023-08-24T12:07:16;101145.28;;;24.83;57.79
61710;BME280;47633;51.494;5.386;2023-08-24T12:09:43;101166.44;;;24.85;57.38
61710;BME280;47633;51.494;5.386;2023-08-24T12:12:15;101153.81;;;24.87;57.88
61710;BME280;47633;51.494;5.386;2023-08-24T12:14:42;101132.31;;;24.88;57.86
61710;BME280;47633;51.494;5.386;2023-08-24T12:17:08;101119.00;;;24.88;57.56
61710;BME280;47633;51.494;5.386;2023-08-24T12:19:34;101115.16;;;24.91;57.58
61710;BME280;47633;51.494;5.386;2023-08-24T12:21:59;101125.50;;;24.94;57.80
61710;BME280;47633;51.494;5.386;2023-08-24T12:24:24;101142.34;;;24.94;57.51
61710;BME280;47633;51.494;5.386;2023-08-24T12:26:56;101161.00;;;24.94;57.69
61710;BME280;47633;51.494;5.386;2023-08-24T12:29:23;101176.66;;;24.97;57.38
61710;BME280;47633;51.494;5.386;2023-08-24T12:31:48;101185.50;;;24.98;57.48
61710;BME280;47633;51.494;5.386;2023-08-24T12:34:15;101187.16;;;24.99;57.83
61710;BME280;47633;51.494;5.386;2023-08-24T12:36:41;101181.81;;;24.99;57.49
61710;BME280;47633;51.494;5.386;2023-08-24T12:39:12;101195.84;;;25.01;57.86
61710;BME280;47633;51.494;5.386;2023-08-24T12:41:41;101195.69;;;25.03;57.93
61710;BME280;47633;51.494;5.386;2023-08-24T12:44:06;101200.00;;;25.04;58.03
61710;BME280;47633;51.494;5.386;2023-08-24T12:46:33;101200.69;;;25.06;57.75
61710;BME280;47633;51.494;5.386;2023-08-24T12:48:58;101193.69;;;25.05;57.84
61710;BME280;47633;51.494;5.386;2023-08-24T12:51:24;101187.19;;;25.07;57.93
61710;BME280;47633;51.494;5.386;2023-08-24T12:53:50;101189.88;;;25.07;58.05
61710;BME280;47633;51.494;5.386;2023-08-24T12:56:15;101192.38;;;25.09;57.71
61710;BME280;47633;51.494;5.386;2023-08-24T12:58:40;101202.19;;;25.08;57.75
61710;BME280;47633;51.494;5.386;2023-08-24T13:01:06;101199.34;;;25.10;58.04
61710;BME280;47633;51.494;5.386;2023-08-24T13:03:32;101199.50;;;25.08;58.04